This is the latest recevied weather packets stored in our database for station/object HK4LRM-13. If no packets are shown the sender has not sent any weather packets the latest 10 day(s).
| Time | Temp. | Humidity | Pressure | Rain* | Wind** | Luminosity | Snow |
|---|---|---|---|---|---|---|---|
| 1777558783 | 20° C | 81% | 1013 hPa | 0 mm | - | - | - |
| 1777558243 | 20° C | 81% | 1013 hPa | 0 mm | - | - | - |
| 1777557702 | 19.44° C | 85% | 1013 hPa | 0 mm | - | - | - |
| 1777557162 | 19.44° C | 85% | 1013 hPa | 0 mm | - | - | - |
| 1777556621 | 18.89° C | 85% | 1013 hPa | 0 mm | - | - | - |
| 1777556081 | 18.33° C | 86% | 1013 hPa | 0 mm | - | - | - |
| 1777555540 | 18.33° C | 88% | 1014 hPa | 0 mm | - | - | - |
| 1777554999 | 18.33° C | 89% | 1014 hPa | 0 mm | - | - | - |
| 1777554450 | 18.33° C | 92% | 1014 hPa | 0 mm | - | - | - |
| 1777553908 | 18.33° C | 92% | 1014 hPa | 0 mm | - | - | - |
| 1777553368 | 18.33° C | 92% | 1014 hPa | 0 mm | - | - | - |
| 1777552827 | 18.33° C | 92% | 1014 hPa | 0 mm | - | - | - |
| 1777552286 | 16.11° C | 97% | 1014 hPa | 0 mm | - | - | - |
| 1777551746 | 16.11° C | 97% | 1014 hPa | 0 mm | - | - | - |
| 1777551205 | 16.11° C | 97% | 1014 hPa | 0 mm | - | - | - |
| 1777550664 | 16.67° C | 96% | 1014 hPa | 0 mm | - | - | - |
| 1777550123 | 16.67° C | 96% | 1014 hPa | 0 mm | - | - | - |
| 1777549583 | 16.67° C | 96% | 1014 hPa | 0 mm | - | - | - |
| 1777549037 | 16.67° C | 96% | 1014 hPa | 0 mm | - | - | - |
| 1777548497 | 16.67° C | 96% | 1014 hPa | 0 mm | - | - | - |
| 1777547956 | 16.67° C | 96% | 1014 hPa | 0 mm | - | - | - |
| 1777547415 | 16.67° C | 96% | 1014 hPa | 0 mm | - | - | - |
| 1777546874 | 16.67° C | 96% | 1014 hPa | 0 mm | - | - | - |
| 1777546334 | 16.67° C | 96% | 1014 hPa | 0 mm | - | - | - |
| 1777545794 | 16.67° C | 96% | 1014 hPa | 0 mm | - | - | - |
* Rain latest hour (hover to see other rain measurements)
** Current wind speed in m/s (hover to see current wind gust speed)